Te Marara — CFN6091 — position and weather

sailwx.info

Track history (hours):
 
Tides and Currents Weather Stations Pressure Air Temp Water Temp Dewpoint Dewpoint Depression Visibility Wind Speed Wind Dir Waves Ship Positions

Te Marara

Last reported at 2017-Sep-26 09:28 UTC. Time now 2017-Sep-26 09:34 UTC.
Position N 47°21' W 002°46'.

Length 15 m.

Type: Sailing vessel. MMSI: 316015966.

Date/timePositionNaut miles runAvg speedWind from/ knotsBaromVisibWave heightAir tempDewpointWater temp
2017-Sep-26 09:28N 47°21' W 002°46'2 4.0
2017-Sep-26 08:59N 47°21' W 002°44'2 4.1
2017-Sep-26 08:30N 47°20' W 002°41'7 0.2
2017-Sep-24 13:11N 47°20' W 002°52'0 0.0
2017-Sep-24 12:56N 47°20' W 002°52'1 2.1
2017-Sep-24 12:30N 47°21' W 002°52'3 6.6
2017-Sep-24 11:59N 47°22' W 002°57'3 6.0
2017-Sep-24 11:30N 47°22' W 003°01'3 6.6
2017-Sep-24 11:00N 47°23' W 003°06'3 5.8
2017-Sep-24 10:30N 47°23' W 003°10'2 4.2
2017-Sep-24 10:00N 47°24' W 003°13'2 3.5
2017-Sep-24 09:30N 47°24' W 003°16'1 2.9
2017-Sep-24 09:00N 47°22' W 003°15'  
2017-Sep-21 16:11N 47°19' W 002°35'3 6.0
2017-Sep-21 15:41N 47°22' W 002°36'1 5.2
2017-Sep-21 15:29N 47°23' W 002°36'2 3.9
2017-Sep-21 14:58N 47°24' W 002°38'10 7.0
2017-Sep-21 13:36N 47°21' W 002°52'0 2.4
2017-Sep-21 13:29N 47°21' W 002°52'1 0.0
2017-Sep-20 11:08N 47°21' W 002°53'0 0.8
2017-Sep-20 11:00N 47°21' W 002°53'1 2.5
2017-Sep-20 10:28N 47°20' W 002°51'1 0.0
2017-Sep-19 14:54N 47°20' W 002°52'0 0.0
2017-Sep-18 20:04N 47°20' W 002°52'0 0.0
2017-Sep-18 19:58N 47°20' W 002°52'0 0.0
2017-Sep-18 19:25N 47°20' W 002°52'0 0.0
2017-Sep-18 18:58N 47°20' W 002°52'0 0.0
2017-Sep-18 18:22N 47°20' W 002°52'0 0.0
2017-Sep-18 17:58N 47°20' W 002°52'0 0.0
2017-Sep-18 17:22N 47°20' W 002°52'0 0.7
2017-Sep-18 17:00N 47°20' W 002°51'3 4.7
2017-Sep-18 16:28N 47°22' W 002°48'20 0.7
2017-Sep-17 12:41N 47°14' W 002°20'1 4.0
2017-Sep-17 12:25N 47°13' W 002°20'1 1.8
2017-Sep-17 11:52N 47°12' W 002°19'2 3.2
2017-Sep-17 11:23N 47°13' W 002°18'0 1.2
2017-Sep-17 11:00N 47°13' W 002°17'0 0.6
2017-Sep-17 10:26N 47°14' W 002°17'  
Track history (hours):
 
Tides and Currents Weather Stations Pressure Air Temp Water Temp Dewpoint Dewpoint Depression Visibility Wind Speed Wind Dir Waves Ship Positions

Te Marara

Last reported at 2017-Sep-26 09:28 UTC. Time now 2017-Sep-26 09:34 UTC.
Position N 47°21' W 002°46'.

Length 15 m.

Type: Sailing vessel. MMSI: 316015966.

Date/timePositionNaut miles runAvg speedWind from/ knotsBaromVisibWave heightAir tempDewpointWater temp
2017-Sep-26 09:28N 47°21' W 002°46'2 4.0
2017-Sep-26 08:59N 47°21' W 002°44'2 4.1
2017-Sep-26 08:30N 47°20' W 002°41'7 0.2
2017-Sep-24 13:11N 47°20' W 002°52'0 0.0
2017-Sep-24 12:56N 47°20' W 002°52'1 2.1
2017-Sep-24 12:30N 47°21' W 002°52'3 6.6
2017-Sep-24 11:59N 47°22' W 002°57'3 6.0
2017-Sep-24 11:30N 47°22' W 003°01'3 6.6
2017-Sep-24 11:00N 47°23' W 003°06'3 5.8
2017-Sep-24 10:30N 47°23' W 003°10'2 4.2
2017-Sep-24 10:00N 47°24' W 003°13'2 3.5
2017-Sep-24 09:30N 47°24' W 003°16'1 2.9
2017-Sep-24 09:00N 47°22' W 003°15'  
2017-Sep-21 16:11N 47°19' W 002°35'3 6.0
2017-Sep-21 15:41N 47°22' W 002°36'1 5.2
2017-Sep-21 15:29N 47°23' W 002°36'2 3.9
2017-Sep-21 14:58N 47°24' W 002°38'10 7.0
2017-Sep-21 13:36N 47°21' W 002°52'0 2.4
2017-Sep-21 13:29N 47°21' W 002°52'1 0.0
2017-Sep-20 11:08N 47°21' W 002°53'0 0.8
2017-Sep-20 11:00N 47°21' W 002°53'1 2.5
2017-Sep-20 10:28N 47°20' W 002°51'1 0.0
2017-Sep-19 14:54N 47°20' W 002°52'0 0.0
2017-Sep-18 20:04N 47°20' W 002°52'0 0.0
2017-Sep-18 19:58N 47°20' W 002°52'0 0.0
2017-Sep-18 19:25N 47°20' W 002°52'0 0.0
2017-Sep-18 18:58N 47°20' W 002°52'0 0.0
2017-Sep-18 18:22N 47°20' W 002°52'0 0.0
2017-Sep-18 17:58N 47°20' W 002°52'0 0.0
2017-Sep-18 17:22N 47°20' W 002°52'0 0.7
2017-Sep-18 17:00N 47°20' W 002°51'3 4.7
2017-Sep-18 16:28N 47°22' W 002°48'20 0.7
2017-Sep-17 12:41N 47°14' W 002°20'1 4.0
2017-Sep-17 12:25N 47°13' W 002°20'1 1.8
2017-Sep-17 11:52N 47°12' W 002°19'2 3.2
2017-Sep-17 11:23N 47°13' W 002°18'0 1.2
2017-Sep-17 11:00N 47°13' W 002°17'0 0.6
2017-Sep-17 10:26N 47°14' W 002°17'  

Dump ship's entire track history